Avonmore, PA

12:41 AM EST on November 28, 2014 (GMT -0500)
North Ridge | Change Station
CLOSE
Current Station
Personal Weather Station
Location: North Apollo, PA
Elevation: 969 ft
Nearby Weather Stations
Active Advisory: Winter Weather Advisory

Elev 969 ft 40.59 °N, 79.55 °W | Updated 53 seconds ago

Overcast
Overcast
30.2 °F
Feels Like 30 °F
N
0.0
Wind Variable Wind from East
Gusts 0.0 mph

Today
High -- | Low -- °F
--% Chance of Precip.
Yesterday
High -- | Low -- °F
Precip. -- in
7:18 AM 4:52 PM
Waxing Crescent, 36% visible
Pressure 30.21 in
Visibility 5.0 miles
Clouds Few 1800 ft
Mostly Cloudy 2200 ft
Overcast 3500 ft
Windchill 30 °F
Dew Point 14 °F
Humidity 50%
Rainfall 0.12 in
Snow Depth Not available.
UV 0 out of 12
Pollen .10 out of 12
Air Quality Not available.
Flu Activity Not available.
METAR KLBE 280535Z AUTO 24008KT 5SM -RA FEW018 BKN022 OVC035 M02/M03 A3021 RMK AO2

More Conditions Fewer Conditions

Pressure 30.21 in
Visibility 5.0 miles
Clouds Few 1800 ft
Mostly Cloudy 2200 ft
Overcast 3500 ft
Windchill 30 °F
Dew Point 14 °F
Humidity 50%
Rainfall 0.12 in
Snow Depth Not available.
UV 0 out of 12
Pollen .10 out of 12
Air Quality Not available.
Flu Activity Not available.
METAR KLBE 280535Z AUTO 24008KT 5SM -RA FEW018 BKN022 OVC035 M02/M03 A3021 RMK AO2

More Conditions Fewer Conditions

10-Day Weather Forecast

Almanac

Astronomy

Nov. 28, 2014 Rise Set
Actual Time
Civil Twilight
Nautical Twilight
Astronomical Twilight
Moon
Length of Visible Light
Length of Day
Tomorrow will be .
, % of the Moon is Illuminated

Today's Extremes

State Highs State Lows

Community

WunderPhotos

Upload Photos

1,774,195 photos uploaded!

WunderBlogs® & News

Nearby

Air Quality

  Air Quality AQ Index Pollutant
Not available.

Snow Depth

Station Depth Elevation

Earthquake Activity

City Distance Mag. Time & Date
Minimum magnitude displayed is 2.5.

Coastal Water Temperatures

Place Temperature

Nearby Weather Stations